Time;durP1;ratioP1;P1;durP2;ratioP2;P2;SDS_P1;SDS_P2;PMS_P1;PMS_P2;Temp;Humidity;BMP_temperature;BMP_pressure;BME280_temperature;BME280_humidity;BME280_pressure;Samples;Min_cycle;Max_cycle;Signal;HPM_P1;HPM_P2
2021/03/25 00:00:26;;;;;;;77.25;42.78;;;;;;;10.71;52.35;101965.31;4914946;28;123365;-65
2021/03/25 00:02:55;;;;;;;80.10;43.22;;;;;;;10.71;52.32;101962.66;4902888;28;124312;-65
2021/03/25 00:05:24;;;;;;;81.40;44.05;;;;;;;10.71;52.28;101965.31;4917776;28;114047;-65
2021/03/25 00:07:50;;;;;;;74.22;41.80;;;;;;;10.75;52.17;101965.25;4923053;28;112832;-65
2021/03/25 00:10:27;;;;;;;73.53;41.78;;;;;;;10.74;52.10;101958.19;4916542;28;123825;-65
2021/03/25 00:12:54;;;;;;;74.53;42.05;;;;;;;10.75;52.15;101962.59;4916823;28;124000;-64
2021/03/25 00:15:21;;;;;;;80.07;43.33;;;;;;;10.74;52.08;101958.19;4917712;28;113527;-65
2021/03/25 00:17:48;;;;;;;73.10;42.50;;;;;;;10.75;52.16;101954.66;4923269;28;114077;-65
2021/03/25 00:20:16;;;;;;;77.18;43.13;;;;;;;10.73;52.04;101953.81;4910160;28;123444;-64
2021/03/25 00:22:43;;;;;;;73.82;43.55;;;;;;;10.73;52.27;101951.19;4917960;28;123760;-65
2021/03/25 00:25:13;;;;;;;70.38;43.05;;;;;;;10.73;52.20;101945.88;4899116;28;113297;-65
2021/03/25 00:27:40;;;;;;;75.25;42.72;;;;;;;10.71;51.74;101948.56;4916024;28;114465;-65
2021/03/25 00:30:10;;;;;;;61.22;36.60;;;;;;;10.68;51.77;101959.22;4913338;28;124322;-65
2021/03/25 00:32:37;;;;;;;63.53;37.05;;;;;;;10.67;51.80;101962.81;4917659;28;124696;-65
2021/03/25 00:35:07;;;;;;;70.05;39.00;;;;;;;10.63;51.82;101962.03;4927325;28;115740;-65
2021/03/25 00:37:33;;;;;;;60.03;36.05;;;;;;;10.55;51.63;101964.03;4915847;28;115071;-65
2021/03/25 00:40:00;;;;;;;62.83;36.65;;;;;;;10.50;51.78;101971.22;4916573;28;124296;-65
2021/03/25 00:42:27;;;;;;;58.28;35.42;;;;;;;10.44;51.65;101966.94;4919624;28;123124;-64
2021/03/25 00:44:54;;;;;;;61.28;34.83;;;;;;;10.40;51.78;101969.72;4926967;28;115040;-66
2021/03/25 00:47:20;;;;;;;59.97;35.75;;;;;;;10.32;51.97;101962.84;4921557;28;112170;-65
2021/03/25 00:49:47;;;;;;;64.65;37.28;;;;;;;10.30;51.86;101958.44;4923230;28;124360;-65
2021/03/25 00:52:14;;;;;;;67.75;37.92;;;;;;;10.27;52.29;101964.72;4905973;28;123860;-65
2021/03/25 00:54:41;;;;;;;64.05;37.85;;;;;;;10.25;52.11;101961.22;4914392;28;114902;-65
2021/03/25 00:57:07;;;;;;;67.72;39.05;;;;;;;10.23;52.26;101960.41;4917650;28;113598;-65
2021/03/25 00:59:34;;;;;;;68.75;38.42;;;;;;;10.22;52.18;101963.94;4914689;28;123156;-66
2021/03/25 01:02:01;;;;;;;63.65;36.95;;;;;;;10.21;51.99;101964.88;4920620;28;123831;-65
2021/03/25 01:04:28;;;;;;;56.67;32.95;;;;;;;10.19;52.20;101961.41;4928338;28;114385;-65
2021/03/25 01:06:54;;;;;;;63.47;35.92;;;;;;;10.17;52.23;101957.03;4917325;28;114273;-66
2021/03/25 01:09:24;;;;;;;61.38;36.85;;;;;;;10.14;52.18;101960.63;4923598;28;123937;-65
2021/03/25 01:11:51;;;;;;;62.17;36.00;;;;;;;10.11;52.12;101953.66;4904802;28;122204;-65
2021/03/25 01:14:20;;;;;;;73.63;39.97;;;;;;;10.10;52.54;101957.19;4905046;28;113634;-66
2021/03/25 01:16:48;;;;;;;72.10;39.20;;;;;;;10.10;52.36;101957.19;4921346;28;114238;-66
2021/03/25 01:19:25;;;;;;;75.22;42.25;;;;;;;10.09;52.56;101946.63;4923113;28;123519;-66
2021/03/25 01:21:53;;;;;;;85.50;41.85;;;;;;;10.08;52.54;101942.28;4914730;28;122053;-65
2021/03/25 01:24:21;;;;;;;69.68;40.58;;;;;;;10.06;53.03;101944.09;4924321;28;115395;-65
2021/03/25 01:26:49;;;;;;;74.45;40.95;;;;;;;10.02;52.75;101942.41;4916992;28;114087;-66
2021/03/25 01:29:18;;;;;;;67.30;38.55;;;;;;;10.01;52.82;101945.97;4916537;28;124286;-65
2021/03/25 01:31:46;;;;;;;63.10;36.17;;;;;;;10.02;53.08;101955.63;4906854;28;122948;-66
2021/03/25 01:34:19;;;;;;;58.55;34.72;;;;;;;9.96;52.93;101954.00;4914545;28;113505;-66
2021/03/25 01:36:47;;;;;;;74.93;42.03;;;;;;;9.89;53.26;101948.00;4917083;28;113125;-65
2021/03/25 01:39:15;;;;;;;75.40;40.80;;;;;;;9.86;53.41;101948.06;4955022;22;123339;-73
2021/03/25 01:41:43;;;;;;;68.80;39.85;;;;;;;9.85;53.41;101941.06;4948457;28;123767;-75
2021/03/25 01:44:31;;;;;;;73.03;41.53;;;;;;;9.85;53.47;101946.34;4950729;28;114425;-76
2021/03/25 01:46:59;;;;;;;73.50;41.40;;;;;;;9.87;53.70;101943.66;4966784;28;113535;-75
2021/03/25 01:49:26;;;;;;;74.53;41.90;;;;;;;9.85;53.78;101946.34;4948463;28;122809;-75
2021/03/25 01:52:16;;;;;;;69.15;40.55;;;;;;;9.84;53.73;101943.75;4941794;28;124436;-75
2021/03/25 01:55:14;;;;;;;71.93;40.08;;;;;;;9.84;53.59;101944.59;4948089;28;113682;-75
2021/03/25 01:57:53;;;;;;;75.03;41.67;;;;;;;9.86;53.99;101937.50;4966512;28;113212;-75
2021/03/25 02:00:35;;;;;;;77.60;42.78;;;;;;;9.87;53.84;101939.25;4951588;28;123159;-75
2021/03/25 02:03:15;;;;;;;71.20;40.65;;;;;;;9.90;54.06;101936.50;4947251;28;122363;-75
2021/03/25 02:06:06;;;;;;;76.47;40.75;;;;;;;9.91;54.18;101951.50;4963955;28;113077;-75
2021/03/25 02:08:44;;;;;;;70.60;40.75;;;;;;;9.94;54.18;101939.94;4952561;28;113902;-75
2021/03/25 02:11:41;;;;;;;82.55;41.03;;;;;;;9.93;54.20;101939.09;4948789;28;123996;-75
2021/03/25 02:14:23;;;;;;;76.22;42.33;;;;;;;9.97;53.98;101933.72;4950329;28;124013;-75
2021/03/25 02:17:00;;;;;;;74.75;41.80;;;;;;;9.98;54.33;101940.75;4950477;28;114857;-75
2021/03/25 02:20:14;;;;;;;79.57;44.05;;;;;;;10.01;54.39;101935.38;4962364;28;114086;-76
2021/03/25 02:23:14;;;;;;;78.50;42.60;;;;;;;10.03;54.24;101933.56;4954107;28;123591;-75
2021/03/25 02:25:48;;;;;;;85.07;43.47;;;;;;;10.06;54.39;101936.16;4960647;28;122885;-75
2021/03/25 02:28:53;;;;;;;;;;;;;;;10.08;53.84;101926.38;4963242;28;113800;-75
2021/03/25 02:31:25;;;;;;;82.10;43.97;;;;;;;10.13;54.04;101929.75;4949180;28;114543;-75
2021/03/25 02:33:57;;;;;;;;;;;;;;;10.15;53.85;101933.22;4967153;28;123053;-75
2021/03/25 02:36:49;;;;;;;79.68;44.90;;;;;;;10.20;53.80;101936.63;4952336;28;123682;-75
2021/03/25 02:39:30;;;;;;;89.18;44.88;;;;;;;10.24;53.93;101927.69;4965735;28;112741;-75
2021/03/25 02:42:18;;;;;;;92.38;49.17;;;;;;;10.28;54.51;101934.69;4946571;28;113202;-76
2021/03/25 02:44:53;;;;;;;86.32;48.13;;;;;;;10.30;54.63;101927.59;4940865;28;124273;-75
2021/03/25 02:47:21;;;;;;;;;;;;;;;10.33;53.85;101938.09;4949121;28;123370;-75
2021/03/25 02:50:00;;;;;;;87.15;47.75;;;;;;;10.38;54.24;101945.03;4949335;28;112376;-75
2021/03/25 02:52:49;;;;;;;93.25;48.33;;;;;;;10.41;54.32;101939.66;4948392;28;113348;-75
2021/03/25 02:55:17;;;;;;;86.72;48.75;;;;;;;10.44;54.73;101934.31;4946138;28;123548;-75
2021/03/25 02:57:59;;;;;;;89.35;49.17;;;;;;;10.48;54.87;101930.66;4950495;28;122964;-76
2021/03/25 03:00:44;;;;;;;87.00;48.90;;;;;;;10.51;54.61;101930.59;4941768;28;114287;-75
2021/03/25 03:03:18;;;;;;;87.20;49.45;;;;;;;10.55;54.92;101926.94;4945048;28;113494;-75
2021/03/25 03:06:11;;;;;;;90.93;49.83;;;;;;;10.59;54.65;101933.88;4948436;28;124358;-75
2021/03/25 03:08:48;;;;;;;87.10;49.55;;;;;;;10.62;54.82;101933.78;4948516;28;123204;-75
2021/03/25 03:11:29;;;;;;;86.22;48.90;;;;;;;10.66;54.55;101930.16;4955381;28;114614;-75
2021/03/25 03:14:03;;;;;;;86.78;48.80;;;;;;;10.70;54.70;101926.50;4960146;28;114123;-75
2021/03/25 03:16:55;;;;;;;86.25;47.78;;;;;;;10.73;54.60;101924.69;4961146;28;123006;-75
2021/03/25 03:19:31;;;;;;;86.07;47.83;;;;;;;10.77;54.70;101936.91;4947173;28;124406;-75
2021/03/25 03:22:06;;;;;;;85.90;48.90;;;;;;;10.81;54.44;101927.97;4965149;28;113733;-75
2021/03/25 03:24:52;;;;;;;90.88;48.55;;;;;;;10.84;54.59;101931.41;4960249;28;113635;-75
2021/03/25 03:27:41;;;;;;;85.13;48.95;;;;;;;10.87;54.79;101927.81;4957383;28;123785;-77
2021/03/25 03:30:19;;;;;;;87.90;48.90;;;;;;;10.91;54.75;101929.47;4964333;28;121954;-75
2021/03/25 03:33:04;;;;;;;84.88;47.35;;;;;;;10.95;54.54;101925.78;4957279;28;113541;-75
2021/03/25 03:35:43;;;;;;;83.65;48.78;;;;;;;10.96;54.62;101922.22;4974513;28;113340;-76
2021/03/25 03:38:15;;;;;;;88.53;47.83;;;;;;;11.01;54.75;101925.59;4950710;28;123121;-75
2021/03/25 03:40:55;;;;;;;82.72;47.30;;;;;;;11.05;54.66;101927.25;4958544;28;124916;-75
2021/03/25 03:43:23;;;;;;;82.28;47.20;;;;;;;11.08;54.57;101927.16;4946530;28;113291;-75
2021/03/25 03:46:00;;;;;;;81.80;46.72;;;;;;;11.09;54.52;101934.22;4946210;28;113771;-75
2021/03/25 03:48:37;;;;;;;83.82;46.83;;;;;;;11.12;54.54;101924.44;4962822;28;123960;-75
2021/03/25 03:51:08;;;;;;;79.35;45.65;;;;;;;11.15;54.25;101914.63;4966492;28;123090;-75
2021/03/25 03:53:39;;;;;;;79.45;46.85;;;;;;;11.17;54.29;101919.84;4963024;28;115027;-75
2021/03/25 03:56:27;;;;;;;80.87;46.80;;;;;;;11.19;54.35;101918.00;4961384;28;113490;-75
2021/03/25 03:58:58;;;;;;;84.97;46.30;;;;;;;11.21;54.51;101916.22;4959067;28;123682;-75
2021/03/25 04:01:44;;;;;;;82.75;47.13;;;;;;;11.22;54.50;101918.78;4961845;28;123430;-75
2021/03/25 04:04:21;;;;;;;85.45;47.50;;;;;;;11.25;54.60;101907.25;4940700;28;115709;-75
2021/03/25 04:07:19;;;;;;;84.75;47.28;;;;;;;11.26;54.30;101903.66;4948207;28;115202;-75
2021/03/25 04:10:15;;;;;;;82.22;47.50;;;;;;;11.26;54.43;101903.66;4950175;28;124810;-75
2021/03/25 04:12:52;;;;;;;86.53;47.67;;;;;;;11.25;54.50;101908.09;4954806;28;123764;-75
2021/03/25 04:15:27;;;;;;;82.95;48.10;;;;;;;11.24;54.85;101900.19;4944171;28;114446;-75
2021/03/25 04:18:19;;;;;;;88.00;48.47;;;;;;;11.23;54.79;101903.78;4946225;28;113460;-75
2021/03/25 04:21:09;;;;;;;90.20;47.05;;;;;;;11.22;54.77;101902.88;4964036;28;123473;-75
2021/03/25 04:23:40;;;;;;;85.05;47.47;;;;;;;11.23;54.83;101909.06;4958851;28;124146;-75
2021/03/25 04:26:07;;;;;;;80.78;47.28;;;;;;;11.25;54.76;101912.53;4948087;28;113074;-75
2021/03/25 04:28:47;;;;;;;86.13;47.05;;;;;;;11.26;54.77;101915.16;4946958;28;113771;-75
2021/03/25 04:31:14;;;;;;;82.10;46.58;;;;;;;11.28;54.80;101909.78;4962185;28;124189;-76
2021/03/25 04:33:40;;;;;;;85.25;47.17;;;;;;;11.27;54.54;101910.72;4958135;28;123738;-75
2021/03/25 04:36:16;;;;;;;81.10;46.03;;;;;;;11.28;54.81;101917.72;4943008;28;113762;-75
2021/03/25 04:38:44;;;;;;;80.30;46.65;;;;;;;11.29;54.70;101911.53;4958392;28;113888;-75
2021/03/25 04:41:12;;;;;;;88.18;47.08;;;;;;;11.30;54.67;101907.94;4945599;28;124256;-75
2021/03/25 04:43:42;;;;;;;77.75;46.72;;;;;;;11.31;54.76;101912.34;4948635;28;123539;-75
2021/03/25 04:46:35;;;;;;;81.18;46.17;;;;;;;11.30;54.49;101915.91;4969884;28;113828;-76
2021/03/25 04:49:12;;;;;;;85.60;45.13;;;;;;;11.30;54.52;101915.91;4951209;28;113869;-75
2021/03/25 04:51:38;;;;;;;80.30;46.75;;;;;;;11.30;54.72;101910.59;4947300;28;122823;-75
2021/03/25 04:54:18;;;;;;;85.53;47.33;;;;;;;11.28;54.82;101901.81;4948338;28;123891;-75
2021/03/25 04:56:45;;;;;;;83.88;45.25;;;;;;;11.28;54.73;101912.44;4941742;28;115020;-75
2021/03/25 04:59:13;;;;;;;82.68;47.05;;;;;;;11.27;55.01;101906.28;4951806;28;114409;-75
2021/03/25 05:01:41;;;;;;;85.43;47.30;;;;;;;11.27;54.83;101900.97;4951631;28;123806;-75
2021/03/25 05:04:12;;;;;;;83.97;45.85;;;;;;;11.28;54.94;101901.81;4965573;28;124420;-75
2021/03/25 05:06:58;;;;;;;86.50;48.15;;;;;;;11.28;54.79;101901.81;4948794;28;114394;-75
2021/03/25 05:09:28;;;;;;;76.82;46.33;;;;;;;11.30;55.07;101902.63;4944813;28;113832;-75
2021/03/25 05:11:56;;;;;;;81.40;45.30;;;;;;;11.29;54.95;101903.56;4962484;28;122850;-75
2021/03/25 05:14:26;;;;;;;80.05;45.90;;;;;;;11.30;55.19;101907.94;4962686;28;122544;-75
2021/03/25 05:17:10;;;;;;;86.10;47.75;;;;;;;11.28;54.84;101901.81;4947649;28;114946;-76
2021/03/25 05:19:55;;;;;;;81.10;44.92;;;;;;;11.26;55.11;101903.66;4945888;28;114286;-75
2021/03/25 05:22:41;;;;;;;74.22;43.33;;;;;;;11.26;54.73;101908.97;4945774;28;123392;-76
2021/03/25 05:25:13;;;;;;;81.78;44.53;;;;;;;11.25;54.98;101900.16;4942306;28;123772;-76
2021/03/25 05:27:47;;;;;;;78.85;46.10;;;;;;;11.23;54.92;101909.06;4965643;28;112559;-75
2021/03/25 05:30:19;;;;;;;80.00;45.22;;;;;;;11.20;54.83;101906.50;4953184;28;113030;-75
2021/03/25 05:32:50;;;;;;;76.43;43.35;;;;;;;11.17;54.57;101904.81;4949873;28;123234;-75
2021/03/25 05:35:26;;;;;;;86.15;46.83;;;;;;;11.15;54.92;101911.06;4943420;28;123938;-75
2021/03/25 05:37:53;;;;;;;84.15;45.90;;;;;;;11.13;54.61;101915.56;4948434;28;113246;-75
2021/03/25 05:40:52;;;;;;;87.28;47.45;;;;;;;11.07;54.77;101904.22;4961875;28;113283;-75
2021/03/25 05:43:40;;;;;;;86.25;47.38;;;;;;;11.00;54.83;101897.38;4943237;28;125595;-75
2021/03/25 05:46:47;;;;;;;86.53;47.70;;;;;;;10.94;54.99;101901.97;4962617;28;123184;-75
2021/03/25 05:49:36;;;;;;;85.95;46.75;;;;;;;10.88;55.01;101905.69;4950662;28;115141;-75
2021/03/25 05:52:09;;;;;;;84.43;46.08;;;;;;;10.83;55.05;101904.94;4963308;28;113495;-75
2021/03/25 05:55:05;;;;;;;92.30;48.17;;;;;;;10.78;54.96;101905.09;4948835;28;123264;-75
2021/03/25 05:57:41;;;;;;;86.63;47.38;;;;;;;10.76;55.31;101908.69;4944118;28;122760;-76
2021/03/25 06:00:07;;;;;;;88.35;46.20;;;;;;;10.71;55.18;101900.88;4972364;28;114598;-75
2021/03/25 06:02:44;;;;;;;86.95;46.53;;;;;;;10.67;55.43;101915.97;4967434;28;115068;-76
2021/03/25 06:05:13;;;;;;;85.10;46.13;;;;;;;10.65;55.31;101917.81;4949421;28;123692;-75
2021/03/25 06:07:49;;;;;;;87.03;46.92;;;;;;;10.64;55.58;101921.38;4961735;28;123533;-75
2021/03/25 06:10:25;;;;;;;85.13;46.92;;;;;;;10.63;55.47;101924.94;4943832;28;114246;-76
2021/03/25 06:12:51;;;;;;;90.78;47.63;;;;;;;10.61;55.43;101926.75;4963657;28;113206;-77
2021/03/25 06:15:47;;;;;;;88.07;46.97;;;;;;;10.60;55.36;101919.72;4963862;28;123897;-76
2021/03/25 06:18:39;;;;;;;86.10;46.50;;;;;;;10.57;55.46;101925.13;4961527;28;123719;-75
2021/03/25 06:21:24;;;;;;;88.28;48.17;;;;;;;10.56;55.70;101933.09;4965700;28;112419;-75
2021/03/25 06:24:24;;;;;;;86.88;48.60;;;;;;;10.54;55.40;101935.78;4950703;28;114069;-75
2021/03/25 06:26:56;;;;;;;87.63;49.55;;;;;;;10.54;55.73;101930.47;4965485;28;123130;-75
2021/03/25 06:29:28;;;;;;;92.50;49.47;;;;;;;10.54;55.85;101935.78;4953895;28;124322;-75
2021/03/25 06:32:30;;;;;;;100.28;49.88;;;;;;;10.53;55.92;101934.06;4954878;28;114440;-76
2021/03/25 06:35:03;;;;;;;97.30;50.08;;;;;;;10.55;55.75;101937.53;4950689;28;113962;-75
2021/03/25 06:37:37;;;;;;;97.97;51.20;;;;;;;10.55;56.17;101937.53;4947638;28;122231;-76
2021/03/25 06:40:15;;;;;;;92.70;50.55;;;;;;;10.56;55.93;101928.66;4956598;28;123598;-75
2021/03/25 06:42:47;;;;;;;93.85;49.80;;;;;;;10.58;56.08;101929.47;4951960;28;114178;-76
2021/03/25 06:45:14;;;;;;;97.68;50.47;;;;;;;10.60;56.32;101935.59;4950000;28;115354;-76
2021/03/25 06:48:04;;;;;;;94.70;50.65;;;;;;;10.60;56.34;101925.00;4937290;28;122982;-75
2021/03/25 06:50:37;;;;;;;97.63;51.88;;;;;;;10.63;56.56;101919.63;4964869;28;122743;-75
2021/03/25 06:53:20;;;;;;;93.80;51.42;;;;;;;10.66;56.61;101932.81;4948089;28;113142;-75
2021/03/25 06:55:54;;;;;;;93.63;52.50;;;;;;;10.71;56.62;101936.19;4953428;28;114314;-75
2021/03/25 06:58:31;;;;;;;102.80;53.35;;;;;;;10.76;56.72;101935.19;4962369;28;124161;-75
2021/03/25 07:01:03;;;;;;;102.13;54.55;;;;;;;10.84;57.04;101927.88;4947952;28;126219;-75
2021/03/25 07:03:31;;;;;;;93.38;54.53;;;;;;;10.91;56.93;101929.47;4961455;28;115850;-75
2021/03/25 07:06:01;;;;;;;90.97;52.47;;;;;;;10.97;57.18;101923.97;4959177;28;114178;-75
2021/03/25 07:08:31;;;;;;;92.35;50.75;;;;;;;11.07;57.06;101935.16;4951326;28;123941;-76
2021/03/25 07:11:04;;;;;;;93.00;50.53;;;;;;;11.16;56.85;101939.34;4974090;28;125950;-76
2021/03/25 07:13:49;;;;;;;86.28;49.67;;;;;;;11.27;57.00;101942.53;4948847;28;113105;-75
2021/03/25 07:16:16;;;;;;;90.22;48.78;;;;;;;11.40;57.18;101949.19;4957808;28;113838;-76
2021/03/25 07:19:03;;;;;;;82.10;49.15;;;;;;;11.50;56.78;101945.34;4947624;28;124271;-75
2021/03/25 07:21:38;;;;;;;82.28;48.88;;;;;;;11.61;56.96;101952.09;4947975;28;126124;-75
2021/03/25 07:24:09;;;;;;;83.00;50.35;;;;;;;11.72;56.62;101954.44;4962040;28;112953;-75
2021/03/25 07:26:40;;;;;;;85.75;50.25;;;;;;;11.78;56.69;101955.09;4962202;28;112977;-75
2021/03/25 07:29:09;;;;;;;87.90;50.78;;;;;;;11.86;56.78;101962.78;4950315;28;124020;-75
2021/03/25 07:31:41;;;;;;;87.15;50.65;;;;;;;11.97;56.73;101971.31;4948910;28;124674;-75
2021/03/25 07:34:09;;;;;;;82.85;49.22;;;;;;;12.08;56.26;101963.00;4950015;28;114095;-75
2021/03/25 07:36:50;;;;;;;81.45;49.10;;;;;;;12.15;56.25;101964.53;4965246;28;114955;-76
2021/03/25 07:39:48;;;;;;;84.03;49.88;;;;;;;12.22;56.40;101960.75;4946753;28;123004;-76
2021/03/25 07:42:33;;;;;;;85.45;50.22;;;;;;;12.30;56.49;101962.25;4945258;28;122184;-76
2021/03/25 07:45:20;;;;;;;83.60;51.13;;;;;;;12.34;56.11;101963.88;4946006;28;114064;-76
2021/03/25 07:47:50;;;;;;;84.03;49.42;;;;;;;12.43;56.41;101963.56;4951177;28;112996;-76
2021/03/25 07:50:26;;;;;;;92.75;49.65;;;;;;;12.49;56.03;101971.34;4949663;28;124677;-75
2021/03/25 07:52:54;;;;;;;79.00;46.20;;;;;;;12.56;56.00;101970.19;4942465;28;123103;-75
2021/03/25 07:55:23;;;;;;;80.70;46.92;;;;;;;12.63;56.16;101970.84;4952479;22;114115;-67
2021/03/25 07:57:52;;;;;;;80.60;49.08;;;;;;;12.69;56.00;101970.63;4912534;28;114147;-68
2021/03/25 08:00:31;;;;;;;83.78;49.38;;;;;;;12.75;55.93;101981.06;4912401;28;123000;-66
2021/03/25 08:03:13;;;;;;;79.25;47.90;;;;;;;12.83;56.03;101978.13;4909120;28;122923;-66
2021/03/25 08:05:44;;;;;;;76.22;47.58;;;;;;;12.91;56.01;101973.38;4922699;28;112577;-67
2021/03/25 08:08:29;;;;;;;79.97;48.65;;;;;;;13.00;55.94;101970.38;4892411;28;113996;-67
2021/03/25 08:11:07;;;;;;;77.25;47.65;;;;;;;13.12;55.98;101978.84;4898631;28;124275;-67
2021/03/25 08:13:36;;;;;;;79.30;47.38;;;;;;;13.20;55.85;101972.31;4894455;28;125542;-65
2021/03/25 08:16:14;;;;;;;81.40;47.78;;;;;;;13.31;55.79;101969.25;4901321;28;114285;-65
2021/03/25 08:19:10;;;;;;;77.88;47.50;;;;;;;13.41;55.45;101970.66;4894171;28;114155;-67
2021/03/25 08:22:17;;;;;;;73.90;46.58;;;;;;;13.54;55.77;101975.47;4894381;28;123103;-67
2021/03/25 08:25:13;;;;;;;73.18;45.08;;;;;;;13.67;55.42;101968.72;4907636;28;123337;-65
2021/03/25 08:27:57;;;;;;;73.30;46.17;;;;;;;13.81;55.56;101978.84;4888871;28;115484;-67
2021/03/25 08:30:38;;;;;;;72.18;44.75;;;;;;;13.94;55.28;101979.22;4893120;28;114452;-67
2021/03/25 08:33:56;;;;;;;68.43;43.40;;;;;;;14.05;55.31;101976.94;4890763;28;124213;-66
2021/03/25 08:36:47;;;;;;;69.45;44.83;;;;;;;14.19;55.19;101973.72;4848347;28;123657;-67
2021/03/25 08:39:33;;;;;;;68.65;45.42;;;;;;;14.32;55.22;101966.94;4838140;28;112572;-67
2021/03/25 08:42:12;;;;;;;69.85;43.28;;;;;;;14.47;55.07;101973.41;4881469;28;116375;-67
2021/03/25 08:44:47;;;;;;;62.65;42.60;;;;;;;14.62;54.54;101981.69;4900087;28;123896;-68
2021/03/25 08:47:47;;;;;;;64.63;41.45;;;;;;;14.72;54.30;101977.72;4901526;28;123930;-68
2021/03/25 08:50:23;;;;;;;65.13;39.30;;;;;;;14.79;54.32;101979.19;4897511;28;113801;-67
2021/03/25 08:52:53;;;;;;;64.80;41.75;;;;;;;14.86;54.34;101975.31;4898269;28;113260;-68
2021/03/25 08:55:32;;;;;;;67.32;42.88;;;;;;;14.94;54.17;101978.47;4883664;28;125276;-67
2021/03/25 08:58:09;;;;;;;64.28;42.38;;;;;;;15.03;54.10;101979.00;4907496;28;124063;-68
2021/03/25 09:00:40;;;;;;;66.13;40.10;;;;;;;15.13;54.07;101972.31;4898987;28;114896;-68
2021/03/25 09:03:14;;;;;;;63.42;41.10;;;;;;;15.24;53.96;101979.81;4899321;28;115141;-66
2021/03/25 09:05:48;;;;;;;64.15;40.20;;;;;;;15.34;53.40;101975.78;4897403;28;123897;-68
2021/03/25 09:08:18;;;;;;;60.67;38.33;;;;;;;15.42;53.09;101972.75;4897711;28;123319;-68
2021/03/25 09:10:52;;;;;;;63.30;39.03;;;;;;;15.48;52.90;101972.44;4909235;28;111447;-69
2021/03/25 09:13:26;;;;;;;52.90;38.67;;;;;;;15.51;52.95;101977.66;4907807;28;114481;-68
2021/03/25 09:15:55;;;;;;;58.25;38.42;;;;;;;15.57;52.84;101977.34;4902179;28;123763;-66
2021/03/25 09:18:29;;;;;;;62.83;37.60;;;;;;;15.61;53.03;101973.59;4896222;28;123181;-67
2021/03/25 09:21:08;;;;;;;52.92;35.08;;;;;;;15.71;52.61;101969.56;4897221;28;114609;-66
2021/03/25 09:23:40;;;;;;;51.30;34.38;;;;;;;15.81;52.73;101971.81;4908616;28;115157;-69
2021/03/25 09:26:10;;;;;;;48.80;33.08;;;;;;;15.89;52.68;101972.28;4898640;28;124061;-66
2021/03/25 09:29:06;;;;;;;51.20;33.05;;;;;;;16.03;52.77;101979.59;4913214;28;122831;-66
2021/03/25 09:31:53;;;;;;;45.75;29.33;;;;;;;16.17;52.20;101976.25;4895911;28;112735;-67
2021/03/25 09:34:23;;;;;;;46.88;27.73;;;;;;;16.25;51.69;101974.06;4899298;28;114080;-67
2021/03/25 09:36:55;;;;;;;42.53;27.70;;;;;;;16.28;51.60;101968.56;4885179;28;122794;-67
2021/03/25 09:39:27;;;;;;;38.85;27.05;;;;;;;16.34;51.46;101968.25;4904076;28;123818;-67
2021/03/25 09:41:57;;;;;;;38.25;26.50;;;;;;;16.40;51.00;101978.63;4907072;28;114030;-67
2021/03/25 09:44:38;;;;;;;40.80;26.75;;;;;;;16.43;51.02;101962.41;4891457;28;113523;-66
2021/03/25 09:47:05;;;;;;;42.20;26.35;;;;;;;16.51;51.16;101981.59;4887936;28;124076;-66
2021/03/25 09:49:41;;;;;;;41.67;25.60;;;;;;;16.58;50.98;101970.59;4904600;28;123634;-67
2021/03/25 09:52:07;;;;;;;44.50;26.48;;;;;;;16.68;50.81;101966.50;4907434;28;114568;-66
2021/03/25 09:55:09;;;;;;;34.55;25.02;;;;;;;16.76;50.64;101964.25;4889400;28;112263;-66
2021/03/25 09:57:50;;;;;;;37.28;24.75;;;;;;;16.90;50.66;101961.75;4912816;28;123168;-67
2021/03/25 10:00:24;;;;;;;41.20;23.27;;;;;;;17.01;50.34;101968.31;4889792;28;123326;-67
2021/03/25 10:02:58;;;;;;;33.75;22.73;;;;;;;17.09;50.08;101960.75;4909662;28;114256;-66
2021/03/25 10:05:25;;;;;;;32.17;21.98;;;;;;;17.18;49.87;101970.09;4912321;28;114400;-67
2021/03/25 10:07:53;;;;;;;29.10;18.67;;;;;;;17.23;49.40;101963.53;4912154;28;125052;-67
2021/03/25 10:10:23;;;;;;;28.10;18.83;;;;;;;17.30;49.24;101958.72;4919924;28;121857;-67
2021/03/25 10:13:02;;;;;;;33.35;20.15;;;;;;;17.36;48.89;101968.22;4921055;28;116190;-67
2021/03/25 10:15:40;;;;;;;31.60;20.77;;;;;;;17.40;48.59;101964.41;4921655;28;115596;-67
2021/03/25 10:18:16;;;;;;;33.90;21.05;;;;;;;17.40;48.64;101964.41;4918957;28;123312;-66
2021/03/25 10:20:44;;;;;;;26.88;17.58;;;;;;;17.40;48.10;101965.25;4915186;28;123758;-67
2021/03/25 10:23:14;;;;;;;26.73;18.35;;;;;;;17.35;47.97;101961.13;4910834;28;113962;-67
2021/03/25 10:25:40;;;;;;;27.27;18.10;;;;;;;17.35;48.01;101969.16;4908713;28;114027;-67
2021/03/25 10:28:13;;;;;;;26.60;16.70;;;;;;;17.32;47.81;101963.03;4911988;28;123955;-66
2021/03/25 10:30:41;;;;;;;23.80;16.17;;;;;;;17.31;47.84;101964.00;4898995;28;121783;-68
2021/03/25 10:33:13;;;;;;;27.17;18.70;;;;;;;17.29;47.63;101963.22;4901086;28;113590;-67
2021/03/25 10:35:55;;;;;;;29.08;18.20;;;;;;;17.27;47.79;101949.03;4895999;28;112829;-66
2021/03/25 10:38:29;;;;;;;22.58;16.23;;;;;;;17.29;47.83;101960.53;4893508;28;124175;-66
2021/03/25 10:41:02;;;;;;;26.53;18.53;;;;;;;17.27;47.72;101958.88;4905181;28;122657;-67
2021/03/25 10:43:34;;;;;;;21.10;15.07;;;;;;;17.29;47.83;101962.31;4894608;28;115170;-66
2021/03/25 10:46:04;;;;;;;22.20;14.40;;;;;;;17.29;47.77;101963.22;4881654;28;114268;-66
2021/03/25 10:48:34;;;;;;;22.90;15.35;;;;;;;17.31;47.72;101958.63;4895359;28;124114;-66
2021/03/25 10:51:07;;;;;;;22.40;15.48;;;;;;;17.32;48.02;101957.66;4880471;28;124961;-67
2021/03/25 10:53:37;;;;;;;24.50;18.25;;;;;;;17.37;48.14;101954.75;4888267;28;113734;-66
2021/03/25 10:56:29;;;;;;;29.85;19.92;;;;;;;17.41;48.26;101955.44;4903331;28;114059;-66
2021/03/25 10:59:11;;;;;;;28.02;20.15;;;;;;;17.43;48.22;101953.53;4899775;28;124400;-66
2021/03/25 11:01:47;;;;;;;27.23;20.90;;;;;;;17.45;48.33;101957.00;4886480;28;123268;-67
2021/03/25 11:04:20;;;;;;;28.92;20.73;;;;;;;17.47;48.63;101950.59;4896698;28;115202;-66
2021/03/25 11:06:47;;;;;;;32.25;22.05;;;;;;;17.51;48.64;101951.28;4900728;28;113830;-66
2021/03/25 11:09:24;;;;;;;28.00;21.08;;;;;;;17.55;48.43;101952.81;4889029;28;124805;-66
2021/03/25 11:12:03;;;;;;;27.10;19.65;;;;;;;17.57;48.39;101948.25;4891260;28;123179;-66
2021/03/25 11:14:35;;;;;;;26.20;19.27;;;;;;;17.57;48.30;101956.28;4894876;28;114433;-67
2021/03/25 11:17:14;;;;;;;25.75;19.80;;;;;;;17.54;48.36;101951.13;4891380;28;113819;-68
2021/03/25 11:19:42;;;;;;;25.65;19.48;;;;;;;17.51;47.82;101962.84;4898792;28;125439;-66
2021/03/25 11:22:13;;;;;;;26.05;20.33;;;;;;;17.46;48.29;101953.34;4899198;28;122764;-67
2021/03/25 11:24:40;;;;;;;28.52;21.05;;;;;;;17.46;48.53;101954.22;4888261;28;114024;-67
2021/03/25 11:27:21;;;;;;;28.73;21.33;;;;;;;17.46;48.73;101951.56;4907890;28;113861;-66
2021/03/25 11:30:12;;;;;;;25.90;21.05;;;;;;;17.48;48.90;101956.84;4894689;28;125003;-66
2021/03/25 11:32:44;;;;;;;28.83;21.45;;;;;;;17.47;48.42;101960.44;4899700;28;124211;-66
2021/03/25 11:35:35;;;;;;;27.92;20.88;;;;;;;17.43;48.46;101958.91;4916659;28;113887;-67
2021/03/25 11:38:17;;;;;;;28.70;20.88;;;;;;;17.37;48.55;101960.09;4889401;28;114902;-66
2021/03/25 11:40:45;;;;;;;28.20;22.48;;;;;;;17.34;48.36;101959.41;4885006;28;124603;-67
2021/03/25 11:43:16;;;;;;;30.00;21.55;;;;;;;17.27;48.43;101959.75;4906303;28;123404;-67